Terminal Aerodrome Forecast
Issued by NWS Atlanta, GA

Current Version | Previous Version | Text Only | Print | Product List | Glossary On
Versions: 1 2 3 4 5 6 7 8 9 10 11 12 13 14 15 16 17 18 19 20 21 22 23 24 25 26 27 28 29 30 31 32 33 34 35 36 37 38
000
FTUS42 KFFC 250551
TAFATL
TAF
KATL 250551Z 2506/2612 17003KT P6SM -RA BKN070
     FM251000 15003KT 5SM -SHRA SCT025 BKN045
     FM251400 19008G13KT 5SM -SHRA OVC015
      TEMPO 2514/2518 2SM SHRA BR BKN015
     FM251800 21010G16KT P6SM VCSH BKN012 PROB30 2520/2524 2SM TSRA
      BKN012CB
     FM260000 23009G15KT P6SM BKN050
     FM260600 24010G16KT P6SM SCT035 BKN100=

USA.gov is the U.S. government's official web portal to all federal, state and local government web resources and services.